Wetterdaten: Woche 19.09.22 - 25.09.22 (KW38)
Datum Zeit Temp. Aussen Temp. o. S. Temp +5cm Feuchte Auss Luftdruck Regen Sonnenschein Regendauer Solar Windben Empfang
19.09.2022 00:00 8,9 C 8,3 C 5,6 C 97 % 1016,9 hPa 0,0 l/m 0,00 h 0,00 h 0 W/m 8,7 km/h (2 Bft) 94,92 %
19.09.2022 01:00 8,8 C 8,3 C 5,5 C 97 % 1017,2 hPa 0,0 l/m 0,00 h 0,00 h 0 W/m 8,4 km/h (2 Bft) 95,73 %
19.09.2022 02:00 9,1 C 8,3 C 5,6 C 97 % 1017,3 hPa 0,0 l/m 0,00 h 0,00 h 0 W/m 7,1 km/h (2 Bft) 96,94 %
19.09.2022 03:00 8,9 C 8,2 C 5,4 C 96 % 1017,6 hPa 0,0 l/m 0,00 h 0,00 h 0 W/m 5,2 km/h (1 Bft) 98,58 %
19.09.2022 04:00 8,7 C 8,0 C 5,0 C 96 % 1017,9 hPa 0,0 l/m 0,00 h 0,00 h 0 W/m 5,9 km/h (2 Bft) 97,03 %
19.09.2022 05:00 8,5 C 7,8 C 5,0 C 96 % 1018,2 hPa 0,0 l/m 0,00 h 0,00 h 0 W/m 6,5 km/h (2 Bft) 97,83 %
19.09.2022 06:00 8,3 C 7,8 C 5,0 C 95 % 1018,5 hPa 0,0 l/m 0,00 h 0,00 h 0 W/m 6,5 km/h (2 Bft) 97,39 %
19.09.2022 07:00 8,3 C 7,8 C 5,1 C 95 % 1018,9 hPa 0,0 l/m 0,00 h 0,00 h 12 W/m 6,1 km/h (2 Bft) 98,65 %
19.09.2022 08:00 9,1 C 9,0 C 6,4 C 96 % 1019,4 hPa 0,0 l/m 0,00 h 0,00 h 62 W/m 6,3 km/h (2 Bft) 96,94 %
19.09.2022 09:00 10,7 C 10,9 C 8,0 C 95 % 1020,0 hPa 0,0 l/m 0,00 h 0,00 h 122 W/m 6,6 km/h (2 Bft) 97,48 %
19.09.2022 10:00 12,3 C 12,7 C 9,6 C 91 % 1020,5 hPa 0,0 l/m 0,03 h 0,00 h 187 W/m 10,6 km/h (2 Bft) 97,52 %
19.09.2022 11:00 14,2 C 15,5 C 11,8 C 86 % 1020,8 hPa 0,0 l/m 0,63 h 0,00 h 327 W/m 14,7 km/h (3 Bft) 96,80 %
19.09.2022 12:00 15,5 C 16,5 C 12,4 C 80 % 1020,7 hPa 0,0 l/m 0,37 h 0,17 h 296 W/m 15,4 km/h (3 Bft) 97,38 %
19.09.2022 13:00 15,7 C 15,4 C 11,6 C 77 % 1020,7 hPa 2,2 l/m 0,13 h 0,20 h 207 W/m 19,1 km/h (3 Bft) 96,80 %
19.09.2022 14:00 12,6 C 11,8 C 8,0 C 91 % 1021,1 hPa 0,4 l/m 0,00 h 0,20 h 155 W/m 8,9 km/h (2 Bft) 99,00 %
19.09.2022 15:00 14,2 C 14,7 C 9,2 C 90 % 1020,9 hPa 0,0 l/m 0,63 h 0,07 h 357 W/m 16,3 km/h (3 Bft) 96,30 %
19.09.2022 16:00 15,1 C 15,7 C 10,3 C 80 % 1020,7 hPa 0,0 l/m 0,60 h 0,00 h 318 W/m 15,8 km/h (3 Bft) 97,37 %
19.09.2022 17:00 15,4 C 16,0 C 11,1 C 74 % 1020,6 hPa 0,0 l/m 0,57 h 0,00 h 215 W/m 20,3 km/h (4 Bft) 99,26 %
19.09.2022 18:00 14,6 C 13,8 C 10,2 C 78 % 1020,8 hPa 0,0 l/m 0,17 h 0,10 h 66 W/m 20,2 km/h (4 Bft) 96,40 %
19.09.2022 19:00 13,6 C 12,8 C 9,3 C 81 % 1021,2 hPa 0,0 l/m 0,00 h 0,00 h 19 W/m 18,8 km/h (3 Bft) 96,33 %
19.09.2022 20:00 13,2 C 12,3 C 8,9 C 85 % 1021,6 hPa 0,0 l/m 0,00 h 0,03 h 0 W/m 9,3 km/h (2 Bft) 98,65 %
19.09.2022 21:00 12,8 C 12,0 C 8,6 C 84 % 1022,0 hPa 0,0 l/m 0,00 h 0,00 h 0 W/m 7,4 km/h (2 Bft) 96,02 %
19.09.2022 22:00 12,5 C 11,7 C 8,3 C 87 % 1022,3 hPa 0,0 l/m 0,00 h 0,00 h 0 W/m 3,9 km/h (1 Bft) 96,76 %
19.09.2022 23:00 12,3 C 11,3 C 7,9 C 89 % 1022,5 hPa 0,0 l/m 0,00 h 0,00 h 0 W/m 1,5 km/h (1 Bft) 98,29 %
20.09.2022 00:00 11,7 C 10,7 C 7,3 C 91 % 1022,6 hPa 0,0 l/m 0,00 h 0,00 h 0 W/m 1,7 km/h (1 Bft) 96,90 %
20.09.2022 01:00 11,6 C 10,9 C 7,7 C 93 % 1022,6 hPa 0,0 l/m 0,00 h 0,00 h 0 W/m 3,8 km/h (1 Bft) 97,01 %
20.09.2022 02:00 11,7 C 11,1 C 7,8 C 93 % 1022,6 hPa 0,0 l/m 0,00 h 0,00 h 0 W/m 3,8 km/h (1 Bft) 98,09 %
20.09.2022 03:00 11,6 C 10,9 C 7,8 C 94 % 1022,6 hPa 0,0 l/m 0,00 h 0,00 h 0 W/m 3,6 km/h (1 Bft) 97,16 %
20.09.2022 04:00 11,4 C 10,6 C 7,8 C 94 % 1022,6 hPa 0,0 l/m 0,00 h 0,00 h 0 W/m 1,3 km/h (1 Bft) 95,37 %
20.09.2022 05:00 11,3 C 10,6 C 7,8 C 94 % 1022,5 hPa 0,0 l/m 0,00 h 0,00 h 0 W/m 2,0 km/h (1 Bft) 97,72 %
20.09.2022 06:00 11,3 C 10,6 C 7,8 C 95 % 1022,6 hPa 0,0 l/m 0,00 h 0,00 h 0 W/m 2,1 km/h (1 Bft) 96,90 %
20.09.2022 07:00 11,2 C 10,6 C 7,8 C 95 % 1022,9 hPa 0,0 l/m 0,00 h 0,00 h 13 W/m 3,0 km/h (1 Bft) 97,22 %
20.09.2022 08:00 11,4 C 11,1 C 8,1 C 95 % 1023,2 hPa 0,0 l/m 0,00 h 0,00 h 58 W/m 3,2 km/h (1 Bft) 96,11 %
20.09.2022 09:00 11,9 C 12,1 C 9,0 C 94 % 1023,5 hPa 0,0 l/m 0,00 h 0,00 h 120 W/m 5,6 km/h (1 Bft) 99,27 %
20.09.2022 10:00 13,1 C 13,3 C 9,8 C 90 % 1023,8 hPa 0,0 l/m 0,00 h 0,00 h 110 W/m 9,1 km/h (2 Bft) 96,30 %
20.09.2022 11:00 14,3 C 14,3 C 10,7 C 80 % 1023,8 hPa 0,0 l/m 0,20 h 0,17 h 169 W/m 9,9 km/h (2 Bft) 98,64 %
20.09.2022 12:00 12,7 C 12,3 C 8,6 C 87 % 1024,0 hPa 0,2 l/m 0,00 h 0,33 h 155 W/m 13,2 km/h (3 Bft) 95,93 %
20.09.2022 13:00 13,9 C 14,8 C 10,8 C 84 % 1024,0 hPa 0,0 l/m 0,13 h 0,00 h 239 W/m 12,5 km/h (3 Bft) 98,59 %
20.09.2022 14:00 14,2 C 14,5 C 10,8 C 80 % 1024,1 hPa 0,0 l/m 0,27 h 0,00 h 269 W/m 11,7 km/h (2 Bft) 98,01 %
20.09.2022 15:00 15,7 C 16,3 C 11,8 C 74 % 1024,0 hPa 0,0 l/m 0,87 h 0,00 h 387 W/m 12,5 km/h (3 Bft) 95,40 %
20.09.2022 16:00 16,5 C 17,1 C 12,3 C 67 % 1023,7 hPa 0,0 l/m 0,93 h 0,00 h 419 W/m 11,6 km/h (2 Bft) 99,22 %
20.09.2022 17:00 16,6 C 19,3 C 11,8 C 66 % 1023,7 hPa 0,0 l/m 0,90 h 0,00 h 317 W/m 10,6 km/h (2 Bft) 96,37 %
20.09.2022 18:00 15,9 C 15,2 C 10,9 C 70 % 1023,9 hPa 0,0 l/m 0,33 h 0,00 h 77 W/m 9,3 km/h (2 Bft) 98,29 %
20.09.2022 19:00 14,5 C 13,0 C 9,0 C 78 % 1024,3 hPa 0,0 l/m 0,00 h 0,00 h 14 W/m 1,0 km/h (0 Bft) 97,65 %
20.09.2022 20:00 12,8 C 11,1 C 7,3 C 84 % 1024,8 hPa 0,0 l/m 0,00 h 0,00 h 0 W/m 0,0 km/h (0 Bft) 96,94 %
20.09.2022 21:00 11,6 C 10,3 C 6,8 C 89 % 1025,2 hPa 0,0 l/m 0,00 h 0,00 h 0 W/m 0,0 km/h (0 Bft) 97,44 %
20.09.2022 22:00 10,6 C 9,2 C 6,0 C 91 % 1025,7 hPa 0,0 l/m 0,00 h 0,00 h 0 W/m 0,1 km/h (0 Bft) 98,95 %
20.09.2022 23:00 9,9 C 8,8 C 5,6 C 93 % 1026,1 hPa 0,0 l/m 0,00 h 0,00 h 0 W/m 0,2 km/h (0 Bft) 96,29 %
21.09.2022 00:00 9,4 C 8,2 C 5,4 C 94 % 1026,3 hPa 0,0 l/m 0,00 h 0,00 h 0 W/m 0,0 km/h (0 Bft) 93,72 %
21.09.2022 01:00 8,9 C 7,8 C 5,0 C 94 % 1026,4 hPa 0,0 l/m 0,00 h 0,00 h 0 W/m 0,3 km/h (0 Bft) 97,86 %
21.09.2022 02:00 8,6 C 7,6 C 5,0 C 95 % 1026,4 hPa 0,0 l/m 0,00 h 0,00 h 0 W/m 0,2 km/h (0 Bft) 98,24 %
21.09.2022 03:00 8,7 C 7,9 C 5,4 C 96 % 1026,4 hPa 0,0 l/m 0,00 h 0,00 h 0 W/m 0,5 km/h (0 Bft) 96,66 %
21.09.2022 04:00 8,4 C 7,3 C 4,7 C 96 % 1026,4 hPa 0,0 l/m 0,00 h 0,00 h 0 W/m 0,1 km/h (0 Bft) 95,90 %
21.09.2022 05:00 7,7 C 6,4 C 4,1 C 96 % 1026,5 hPa 0,0 l/m 0,00 h 0,00 h 0 W/m 0,0 km/h (0 Bft) 96,94 %
21.09.2022 06:00 7,0 C 6,1 C 3,7 C 96 % 1026,6 hPa 0,0 l/m 0,00 h 0,00 h 0 W/m 0,0 km/h (0 Bft) 98,70 %
21.09.2022 07:00 6,9 C 6,5 C 4,1 C 96 % 1026,9 hPa 0,0 l/m 0,00 h 0,00 h 21 W/m 0,2 km/h (0 Bft) 97,93 %
21.09.2022 08:00 8,1 C 8,3 C 5,4 C 97 % 1027,4 hPa 0,0 l/m 0,00 h 0,00 h 65 W/m 1,1 km/h (0 Bft) 94,94 %
21.09.2022 09:00 9,6 C 10,3 C 7,0 C 98 % 1027,6 hPa 0,0 l/m 0,00 h 0,00 h 125 W/m 1,4 km/h (1 Bft) 97,93 %
21.09.2022 10:00 10,8 C 11,9 C 8,2 C 98 % 1027,6 hPa 0,0 l/m 0,00 h 0,00 h 107 W/m 4,2 km/h (1 Bft) 97,37 %
21.09.2022 11:00 13,0 C 15,6 C 11,6 C 91 % 1027,6 hPa 0,0 l/m 0,60 h 0,00 h 383 W/m 6,8 km/h (2 Bft) 98,27 %
21.09.2022 12:00 15,3 C 17,8 C 12,4 C 77 % 1027,5 hPa 0,0 l/m 0,43 h 0,00 h 301 W/m 7,2 km/h (2 Bft) 97,85 %
21.09.2022 13:00 15,7 C 15,6 C 11,3 C 71 % 1027,3 hPa 0,0 l/m 0,00 h 0,00 h 128 W/m 5,4 km/h (1 Bft) 96,60 %
21.09.2022 14:00 16,6 C 20,6 C 11,6 C 66 % 1026,8 hPa 0,0 l/m 0,80 h 0,00 h 607 W/m 6,0 km/h (2 Bft) 97,42 %
21.09.2022 15:00 18,1 C 17,7 C 12,5 C 57 % 1026,3 hPa 0,0 l/m 0,80 h 0,00 h 501 W/m 6,9 km/h (2 Bft) 99,15 %
21.09.2022 16:00 18,4 C 18,6 C 13,3 C 58 % 1025,9 hPa 0,0 l/m 0,87 h 0,00 h 480 W/m 7,5 km/h (2 Bft) 96,72 %
21.09.2022 17:00 16,9 C 17,1 C 11,2 C 64 % 1025,6 hPa 0,0 l/m 0,30 h 0,00 h 119 W/m 3,8 km/h (1 Bft) 97,79 %
21.09.2022 18:00 16,7 C 15,3 C 10,0 C 69 % 1025,4 hPa 0,0 l/m 0,37 h 0,00 h 73 W/m 0,6 km/h (0 Bft) 97,63 %
21.09.2022 19:00 14,9 C 11,9 C 7,9 C 76 % 1025,4 hPa 0,0 l/m 0,00 h 0,00 h 11 W/m 0,0 km/h (0 Bft) 97,09 %
21.09.2022 20:00 12,5 C 10,2 C 6,7 C 82 % 1025,6 hPa 0,0 l/m 0,00 h 0,00 h 0 W/m 0,0 km/h (0 Bft) 98,93 %
21.09.2022 21:00 11,1 C 9,5 C 5,9 C 87 % 1025,7 hPa 0,0 l/m 0,00 h 0,00 h 0 W/m 0,0 km/h (0 Bft) 95,23 %
21.09.2022 22:00 10,3 C 8,7 C 5,5 C 89 % 1025,7 hPa 0,0 l/m 0,00 h 0,00 h 0 W/m 0,0 km/h (0 Bft) 98,36 %
21.09.2022 23:00 9,5 C 8,0 C 4,9 C 91 % 1025,6 hPa 0,0 l/m 0,00 h 0,00 h 0 W/m 0,0 km/h (0 Bft) 97,58 %
22.09.2022 00:00 8,7 C 7,4 C 4,4 C 92 % 1025,5 hPa 0,0 l/m 0,00 h 0,00 h 0 W/m 0,0 km/h (0 Bft) 97,86 %
22.09.2022 01:00 8,2 C 7,0 C 4,2 C 93 % 1025,4 hPa 0,0 l/m 0,00 h 0,00 h 0 W/m 0,0 km/h (0 Bft) 97,36 %
22.09.2022 02:00 7,6 C 6,4 C 3,7 C 94 % 1025,3 hPa 0,0 l/m 0,00 h 0,00 h 0 W/m 0,0 km/h (0 Bft) 96,22 %
22.09.2022 03:00 7,2 C 6,1 C 3,3 C 94 % 1024,9 hPa 0,0 l/m 0,00 h 0,00 h 0 W/m 0,0 km/h (0 Bft) 98,08 %
22.09.2022 04:00 6,8 C 5,6 C 3,3 C 95 % 1024,5 hPa 0,0 l/m 0,00 h 0,00 h 0 W/m 0,0 km/h (0 Bft) 97,86 %
22.09.2022 05:00 6,8 C 6,4 C 3,7 C 96 % 1024,2 hPa 0,0 l/m 0,00 h 0,00 h 0 W/m 1,8 km/h (1 Bft) 98,93 %
22.09.2022 06:00 7,2 C 6,7 C 4,1 C 96 % 1024,0 hPa 0,0 l/m 0,00 h 0,00 h 0 W/m 2,2 km/h (1 Bft) 94,87 %
22.09.2022 07:00 7,0 C 6,2 C 3,9 C 96 % 1024,1 hPa 0,0 l/m 0,00 h 0,00 h 10 W/m 3,3 km/h (1 Bft) 99,29 %
22.09.2022 08:00 7,2 C 7,2 C 4,4 C 97 % 1024,2 hPa 0,2 l/m 0,00 h 0,00 h 21 W/m 3,9 km/h (1 Bft) 97,51 %
22.09.2022 09:00 8,6 C 9,0 C 5,9 C 97 % 1024,1 hPa 0,0 l/m 0,00 h 0,00 h 46 W/m 6,3 km/h (2 Bft) 96,70 %
22.09.2022 10:00 10,7 C 11,5 C 7,6 C 93 % 1024,1 hPa 0,0 l/m 0,03 h 0,00 h 86 W/m 7,1 km/h (2 Bft) 98,08 %
22.09.2022 11:00 13,7 C 16,5 C 12,2 C 82 % 1024,0 hPa 0,0 l/m 0,37 h 0,00 h 305 W/m 7,9 km/h (2 Bft) 96,87 %
22.09.2022 12:00 16,7 C 19,0 C 13,5 C 67 % 1023,6 hPa 0,0 l/m 0,40 h 0,00 h 252 W/m 9,5 km/h (2 Bft) 96,32 %
22.09.2022 13:00 17,6 C 17,5 C 12,9 C 59 % 1023,1 hPa 0,0 l/m 0,27 h 0,00 h 222 W/m 10,4 km/h (2 Bft) 98,65 %
22.09.2022 14:00 19,2 C 23,1 C 13,3 C 53 % 1022,5 hPa 0,0 l/m 1,00 h 0,00 h 678 W/m 12,2 km/h (2 Bft) 98,25 %
22.09.2022 15:00 19,9 C 19,5 C 13,9 C 51 % 1021,9 hPa 0,0 l/m 1,00 h 0,00 h 589 W/m 10,0 km/h (2 Bft) 96,70 %
22.09.2022 16:00 19,8 C 19,6 C 14,1 C 52 % 1021,3 hPa 0,0 l/m 1,00 h 0,00 h 460 W/m 8,0 km/h (2 Bft) 97,72 %
22.09.2022 17:00 19,7 C 22,6 C 13,6 C 52 % 1020,7 hPa 0,0 l/m 1,00 h 0,00 h 292 W/m 6,7 km/h (2 Bft) 98,26 %
22.09.2022 18:00 18,9 C 17,8 C 12,5 C 55 % 1020,4 hPa 0,0 l/m 0,47 h 0,00 h 77 W/m 3,6 km/h (1 Bft) 97,10 %
22.09.2022 19:00 16,6 C 14,0 C 9,4 C 67 % 1020,3 hPa 0,0 l/m 0,00 h 0,00 h 12 W/m 0,1 km/h (0 Bft) 97,80 %
22.09.2022 20:00 13,7 C 11,6 C 7,5 C 77 % 1020,3 hPa 0,0 l/m 0,00 h 0,00 h 0 W/m 0,0 km/h (0 Bft) 96,45 %
22.09.2022 21:00 12,0 C 10,4 C 6,7 C 81 % 1020,2 hPa 0,0 l/m 0,00 h 0,00 h 0 W/m 0,0 km/h (0 Bft) 99,73 %
22.09.2022 22:00 10,9 C 9,6 C 6,1 C 84 % 1019,9 hPa 0,0 l/m 0,00 h 0,00 h 0 W/m 0,0 km/h (0 Bft) 97,71 %
22.09.2022 23:00 10,7 C 10,4 C 6,8 C 86 % 1019,7 hPa 0,0 l/m 0,00 h 0,00 h 0 W/m 2,8 km/h (1 Bft) 97,87 %
23.09.2022 00:00 11,1 C 10,4 C 7,2 C 84 % 1019,3 hPa 0,0 l/m 0,00 h 0,00 h 0 W/m 3,9 km/h (1 Bft) 96,43 %
23.09.2022 01:00 10,8 C 10,0 C 6,7 C 84 % 1019,0 hPa 0,0 l/m 0,00 h 0,00 h 0 W/m 4,6 km/h (1 Bft) 98,08 %
23.09.2022 02:00 10,6 C 10,0 C 6,7 C 86 % 1018,7 hPa 0,0 l/m 0,00 h 0,00 h 0 W/m 5,0 km/h (1 Bft) 97,87 %
23.09.2022 03:00 10,4 C 9,6 C 6,7 C 86 % 1018,4 hPa 0,0 l/m 0,00 h 0,00 h 0 W/m 7,1 km/h (2 Bft) 96,58 %
23.09.2022 04:00 10,2 C 9,4 C 6,2 C 86 % 1018,1 hPa 0,0 l/m 0,00 h 0,00 h 0 W/m 6,1 km/h (2 Bft) 97,52 %
23.09.2022 05:00 9,7 C 8,8 C 5,8 C 86 % 1017,7 hPa 0,0 l/m 0,00 h 0,00 h 0 W/m 5,2 km/h (1 Bft) 98,45 %
23.09.2022 06:00 9,3 C 8,3 C 5,6 C 87 % 1017,3 hPa 0,0 l/m 0,00 h 0,00 h 0 W/m 7,8 km/h (2 Bft) 95,99 %
23.09.2022 07:00 9,1 C 8,3 C 5,2 C 88 % 1017,2 hPa 0,0 l/m 0,00 h 0,00 h 19 W/m 7,4 km/h (2 Bft) 98,42 %
23.09.2022 08:00 9,5 C 9,3 C 6,0 C 88 % 1017,3 hPa 0,0 l/m 0,00 h 0,00 h 74 W/m 6,3 km/h (2 Bft) 98,07 %
23.09.2022 09:00 10,9 C 10,9 C 7,3 C 86 % 1017,4 hPa 0,0 l/m 0,07 h 0,00 h 133 W/m 7,4 km/h (2 Bft) 96,26 %
23.09.2022 10:00 12,3 C 12,4 C 8,6 C 83 % 1017,4 hPa 0,0 l/m 0,20 h 0,00 h 173 W/m 7,5 km/h (2 Bft) 98,38 %
23.09.2022 11:00 14,1 C 15,8 C 11,3 C 79 % 1017,2 hPa 0,0 l/m 0,53 h 0,00 h 319 W/m 7,5 km/h (2 Bft) 98,93 %
23.09.2022 12:00 16,5 C 17,4 C 12,5 C 71 % 1016,9 hPa 0,0 l/m 0,20 h 0,00 h 266 W/m 8,3 km/h (2 Bft) 96,32 %
23.09.2022 13:00 17,8 C 18,4 C 13,1 C 68 % 1016,5 hPa 0,0 l/m 0,10 h 0,00 h 270 W/m 8,4 km/h (2 Bft) 96,53 %
23.09.2022 14:00 18,3 C 18,4 C 13,3 C 64 % 1016,0 hPa 0,0 l/m 0,20 h 0,00 h 243 W/m 6,6 km/h (2 Bft) 97,43 %
23.09.2022 15:00 18,3 C 18,1 C 13,3 C 63 % 1015,7 hPa 0,0 l/m 0,10 h 0,00 h 200 W/m 5,8 km/h (2 Bft) 98,36 %
23.09.2022 16:00 18,4 C 18,0 C 13,5 C 61 % 1015,2 hPa 0,0 l/m 0,13 h 0,00 h 157 W/m 9,1 km/h (2 Bft) 96,45 %
23.09.2022 17:00 17,7 C 16,9 C 12,8 C 64 % 1014,9 hPa 0,0 l/m 0,00 h 0,00 h 71 W/m 6,5 km/h (2 Bft) 97,71 %
23.09.2022 18:00 17,1 C 16,0 C 11,9 C 68 % 1014,8 hPa 0,0 l/m 0,00 h 0,00 h 31 W/m 3,2 km/h (1 Bft) 99,71 %
23.09.2022 19:00 16,4 C 14,9 C 10,7 C 72 % 1014,7 hPa 0,0 l/m 0,00 h 0,00 h 8 W/m 1,0 km/h (0 Bft) 94,88 %
23.09.2022 20:00 15,4 C 13,5 C 9,5 C 78 % 1014,6 hPa 0,0 l/m 0,00 h 0,00 h 0 W/m 0,0 km/h (0 Bft) 98,93 %
23.09.2022 21:00 14,5 C 13,3 C 9,4 C 83 % 1014,7 hPa 0,0 l/m 0,00 h 0,00 h 0 W/m 0,0 km/h (0 Bft) 98,13 %
23.09.2022 22:00 14,3 C 13,0 C 9,2 C 85 % 1014,4 hPa 0,0 l/m 0,00 h 0,00 h 0 W/m 0,0 km/h (0 Bft) 96,23 %
23.09.2022 23:00 13,9 C 12,8 C 8,9 C 88 % 1014,2 hPa 0,0 l/m 0,00 h 0,00 h 0 W/m 0,4 km/h (0 Bft) 99,00 %
24.09.2022 00:00 13,8 C 13,2 C 9,4 C 89 % 1014,2 hPa 0,0 l/m 0,00 h 0,00 h 0 W/m 3,5 km/h (1 Bft) 97,13 %
24.09.2022 01:00 13,9 C 12,8 C 9,4 C 90 % 1014,0 hPa 0,0 l/m 0,00 h 0,00 h 0 W/m 0,0 km/h (0 Bft) 97,98 %
24.09.2022 02:00 13,7 C 12,5 C 9,1 C 91 % 1013,8 hPa 0,0 l/m 0,00 h 0,00 h 0 W/m 0,0 km/h (0 Bft) 96,89 %
24.09.2022 03:00 13,3 C 12,2 C 8,9 C 92 % 1013,5 hPa 0,0 l/m 0,00 h 0,00 h 0 W/m 0,0 km/h (0 Bft) 98,43 %
24.09.2022 04:00 13,0 C 12,1 C 8,9 C 93 % 1013,0 hPa 0,0 l/m 0,00 h 0,00 h 0 W/m 1,7 km/h (1 Bft) 97,15 %
24.09.2022 05:00 12,7 C 11,8 C 8,9 C 94 % 1012,6 hPa 0,0 l/m 0,00 h 0,00 h 0 W/m 1,5 km/h (1 Bft) 95,50 %
24.09.2022 06:00 12,6 C 11,7 C 8,9 C 94 % 1012,4 hPa 0,0 l/m 0,00 h 0,00 h 0 W/m 3,4 km/h (1 Bft) 98,67 %
24.09.2022 07:00 12,5 C 11,8 C 8,8 C 94 % 1012,4 hPa 0,0 l/m 0,00 h 0,03 h 14 W/m 2,5 km/h (1 Bft) 97,44 %
24.09.2022 08:00 12,8 C 12,7 C 9,2 C 95 % 1012,7 hPa 0,0 l/m 0,00 h 0,00 h 59 W/m 3,1 km/h (1 Bft) 97,01 %
24.09.2022 09:00 13,6 C 13,8 C 10,3 C 94 % 1012,9 hPa 0,0 l/m 0,00 h 0,00 h 107 W/m 4,2 km/h (1 Bft) 98,70 %
24.09.2022 10:00 14,6 C 15,3 C 11,4 C 89 % 1013,1 hPa 0,0 l/m 0,40 h 0,00 h 208 W/m 5,1 km/h (1 Bft) 96,98 %
24.09.2022 11:00 16,4 C 18,0 C 13,6 C 82 % 1013,1 hPa 0,0 l/m 1,00 h 0,00 h 341 W/m 5,9 km/h (2 Bft) 95,56 %
24.09.2022 12:00 17,0 C 17,1 C 13,2 C 77 % 1013,1 hPa 0,0 l/m 0,07 h 0,00 h 220 W/m 5,9 km/h (2 Bft) 98,60 %
24.09.2022 13:00 16,9 C 17,0 C 13,0 C 79 % 1013,1 hPa 0,0 l/m 0,00 h 0,00 h 236 W/m 7,0 km/h (2 Bft) 97,99 %
24.09.2022 14:00 17,0 C 16,9 C 13,0 C 77 % 1012,9 hPa 0,0 l/m 0,00 h 0,00 h 159 W/m 4,4 km/h (1 Bft) 96,60 %
24.09.2022 15:00 16,9 C 16,5 C 12,7 C 77 % 1012,8 hPa 0,0 l/m 0,00 h 0,00 h 127 W/m 3,5 km/h (1 Bft) 96,95 %
24.09.2022 16:00 16,7 C 16,0 C 11,6 C 83 % 1012,8 hPa 0,2 l/m 0,00 h 0,50 h 69 W/m 3,5 km/h (1 Bft) 98,14 %
24.09.2022 17:00 15,7 C 15,0 C 10,6 C 91 % 1012,8 hPa 0,0 l/m 0,00 h 0,03 h 55 W/m 4,2 km/h (1 Bft) 98,02 %
24.09.2022 18:00 15,3 C 14,7 C 10,9 C 92 % 1013,0 hPa 0,0 l/m 0,00 h 0,00 h 29 W/m 4,0 km/h (1 Bft) 96,22 %
24.09.2022 19:00 14,8 C 14,0 C 9,7 C 93 % 1013,4 hPa 0,6 l/m 0,00 h 0,30 h 0 W/m 5,1 km/h (1 Bft) 99,00 %
24.09.2022 20:00 14,2 C 13,3 C 9,4 C 94 % 1013,8 hPa 0,2 l/m 0,00 h 0,17 h 0 W/m 4,6 km/h (1 Bft) 97,59 %
24.09.2022 21:00 13,8 C 13,0 C 9,1 C 95 % 1014,1 hPa 0,0 l/m 0,00 h 0,00 h 0 W/m 5,7 km/h (1 Bft) 96,27 %
24.09.2022 22:00 13,4 C 12,8 C 9,0 C 95 % 1014,3 hPa 0,0 l/m 0,00 h 0,00 h 0 W/m 6,6 km/h (2 Bft) 97,77 %
24.09.2022 23:00 13,5 C 12,8 C 9,4 C 96 % 1014,4 hPa 0,0 l/m 0,00 h 0,00 h 0 W/m 2,2 km/h (1 Bft) 97,37 %
25.09.2022 00:00 13,3 C 12,8 C 9,3 C 96 % 1014,5 hPa 0,0 l/m 0,00 h 0,00 h 0 W/m 7,1 km/h (2 Bft) 96,73 %
25.09.2022 01:00 13,1 C 12,2 C 9,2 C 96 % 1014,5 hPa 0,0 l/m 0,00 h 0,00 h 0 W/m 6,4 km/h (2 Bft) 95,81 %
25.09.2022 02:00 12,7 C 12,2 C 8,9 C 95 % 1014,6 hPa 0,0 l/m 0,00 h 0,00 h 0 W/m 10,5 km/h (2 Bft) 97,81 %
25.09.2022 03:00 12,6 C 12,2 C 8,9 C 95 % 1014,7 hPa 0,0 l/m 0,00 h 0,00 h 0 W/m 9,0 km/h (2 Bft) 97,44 %
25.09.2022 04:00 12,4 C 11,7 C 8,3 C 95 % 1014,8 hPa 0,0 l/m 0,00 h 0,00 h 0 W/m 7,0 km/h (2 Bft) 96,09 %
25.09.2022 05:00 12,1 C 11,6 C 8,3 C 96 % 1014,9 hPa 0,0 l/m 0,00 h 0,00 h 0 W/m 8,8 km/h (2 Bft) 99,50 %
25.09.2022 06:00 11,7 C 11,1 C 8,1 C 95 % 1014,8 hPa 0,0 l/m 0,00 h 0,00 h 0 W/m 6,5 km/h (2 Bft) 96,14 %
25.09.2022 07:00 11,3 C 10,6 C 7,8 C 94 % 1014,9 hPa 0,0 l/m 0,00 h 0,00 h 9 W/m 5,6 km/h (1 Bft) 97,57 %
25.09.2022 08:00 10,9 C 10,1 C 7,3 C 94 % 1015,1 hPa 0,0 l/m 0,00 h 0,00 h 20 W/m 9,0 km/h (2 Bft) 98,09 %
25.09.2022 09:00 11,1 C 11,1 C 7,9 C 95 % 1015,4 hPa 0,0 l/m 0,10 h 0,00 h 65 W/m 9,6 km/h (2 Bft) 97,65 %
25.09.2022 10:00 12,8 C 13,0 C 9,4 C 89 % 1015,4 hPa 0,0 l/m 0,27 h 0,00 h 139 W/m 11,6 km/h (2 Bft) 96,74 %
25.09.2022 11:00 14,7 C 17,1 C 13,1 C 79 % 1015,4 hPa 0,0 l/m 0,37 h 0,00 h 309 W/m 11,7 km/h (2 Bft) 99,79 %
25.09.2022 12:00 15,6 C 16,2 C 12,0 C 74 % 1015,2 hPa 0,0 l/m 0,20 h 0,00 h 230 W/m 14,8 km/h (3 Bft) 95,78 %
25.09.2022 13:00 15,9 C 16,3 C 11,8 C 70 % 1015,0 hPa 0,0 l/m 0,27 h 0,00 h 242 W/m 13,0 km/h (3 Bft) 97,86 %
25.09.2022 14:00 16,8 C 18,9 C 12,2 C 66 % 1014,6 hPa 0,0 l/m 0,73 h 0,00 h 509 W/m 10,6 km/h (2 Bft) 98,34 %
25.09.2022 15:00 17,1 C 16,9 C 12,3 C 65 % 1014,0 hPa 0,0 l/m 0,73 h 0,00 h 430 W/m 11,6 km/h (2 Bft) 97,14 %
25.09.2022 16:00 17,5 C 17,4 C 12,7 C 64 % 1013,6 hPa 0,0 l/m 0,87 h 0,00 h 415 W/m 12,4 km/h (3 Bft) 97,77 %
25.09.2022 17:00 16,7 C 16,2 C 11,5 C 68 % 1013,3 hPa 0,0 l/m 0,07 h 0,00 h 72 W/m 9,8 km/h (2 Bft) 96,40 %
25.09.2022 18:00 16,3 C 16,1 C 11,5 C 67 % 1013,1 hPa 0,0 l/m 0,70 h 0,00 h 98 W/m 10,2 km/h (2 Bft) 98,69 %
25.09.2022 19:00 15,3 C 13,7 C 9,8 C 72 % 1013,2 hPa 0,0 l/m 0,00 h 0,00 h 11 W/m 4,1 km/h (1 Bft) 96,66 %
25.09.2022 20:00 14,0 C 12,9 C 9,3 C 77 % 1013,1 hPa 0,0 l/m 0,00 h 0,00 h 0 W/m 4,9 km/h (1 Bft) 98,14 %
25.09.2022 21:00 13,0 C 11,3 C 7,8 C 82 % 1012,9 hPa 0,0 l/m 0,00 h 0,00 h 0 W/m 0,1 km/h (0 Bft) 97,22 %
25.09.2022 22:00 11,4 C 10,1 C 6,8 C 87 % 1012,5 hPa 0,0 l/m 0,00 h 0,00 h 0 W/m 0,0 km/h (0 Bft) 98,48 %
25.09.2022 23:00 10,7 C 9,4 C 6,1 C 90 % 1012,1 hPa 0,0 l/m 0,00 h 0,00 h 0 W/m 0,0 km/h (0 Bft) 96,39 %
Min-Datum _ 22.09.22 22.09.22 22.09.22 22.09.22 25.09.22 - - - - 19.09.22 19.09.22
_ Min-Zeit 05:00 04:00 04:54 14:54 23:54 - - - - 03:22 00:02
Minimum _ 6,6 C 5,6 C 2,8 C 50 % 1011,9 hPa - - - - 0,0 km/h (0 Bft) 7,14 %
Max-Datum _ 22.09.22 22.09.22 22.09.22 21.09.22 21.09.22 19.09.22 19.09.22 20.09.22 19.09.22 19.09.22 19.09.22
_ Max-Zeit 15:24 14:08 11:52 08:42 10:38 13:50 12:08 12:08 12:10 18:08 00:08
Maximum _ 20,1 C 26,1 C 17,8 C 98 % 1027,7 hPa 2,2 l/m 0,07 h 0,07 h 800 W/m 41,8 km/h
NW (6 Bft)
100,00 %
Durchschnitt _ 12,9 C 12,6 C 8,8 C 84 % 1019,6 hPa #4,0 l/m #23:46 h #2:18 h 187 W/m 5,6 km/h (1 Bft) 97,40 %
© 2022 W. Hausmann